sensor_id;sensor_type;location;lat;lon;timestamp;temperature;humidity
71668;DHT22;59504;54.806;9.640;2023-06-22T00:00:00;15.80;59.20
71668;DHT22;59504;54.806;9.640;2023-06-22T00:02:21;15.80;59.30
71668;DHT22;59504;54.806;9.640;2023-06-22T00:04:42;15.80;59.00
71668;DHT22;59504;54.806;9.640;2023-06-22T00:07:03;15.70;59.70
71668;DHT22;59504;54.806;9.640;2023-06-22T00:09:24;15.70;59.20
71668;DHT22;59504;54.806;9.640;2023-06-22T00:11:45;15.70;58.90
71668;DHT22;59504;54.806;9.640;2023-06-22T00:14:06;15.60;58.90
71668;DHT22;59504;54.806;9.640;2023-06-22T00:16:27;15.60;58.90
71668;DHT22;59504;54.806;9.640;2023-06-22T00:18:48;15.60;59.40
71668;DHT22;59504;54.806;9.640;2023-06-22T00:21:09;15.50;59.00
71668;DHT22;59504;54.806;9.640;2023-06-22T00:23:30;15.50;59.50
71668;DHT22;59504;54.806;9.640;2023-06-22T00:25:54;15.50;59.50
71668;DHT22;59504;54.806;9.640;2023-06-22T00:28:15;15.40;59.50
71668;DHT22;59504;54.806;9.640;2023-06-22T00:30:36;15.50;59.80
71668;DHT22;59504;54.806;9.640;2023-06-22T00:32:57;15.40;60.10
71668;DHT22;59504;54.806;9.640;2023-06-22T00:35:19;15.40;59.60
71668;DHT22;59504;54.806;9.640;2023-06-22T00:37:39;15.30;59.50
71668;DHT22;59504;54.806;9.640;2023-06-22T00:40:03;15.30;59.40
71668;DHT22;59504;54.806;9.640;2023-06-22T00:42:25;15.30;59.40
71668;DHT22;59504;54.806;9.640;2023-06-22T00:44:46;15.20;59.40
71668;DHT22;59504;54.806;9.640;2023-06-22T00:47:07;15.20;59.50
71668;DHT22;59504;54.806;9.640;2023-06-22T00:49:28;15.20;59.60
71668;DHT22;59504;54.806;9.640;2023-06-22T00:51:49;15.10;59.60
71668;DHT22;59504;54.806;9.640;2023-06-22T00:54:10;15.20;59.70
71668;DHT22;59504;54.806;9.640;2023-06-22T00:56:31;15.10;59.80
71668;DHT22;59504;54.806;9.640;2023-06-22T00:58:52;15.10;59.80
71668;DHT22;59504;54.806;9.640;2023-06-22T01:01:13;15.10;59.80
71668;DHT22;59504;54.806;9.640;2023-06-22T01:03:35;15.00;60.40
71668;DHT22;59504;54.806;9.640;2023-06-22T01:06:04;15.00;59.90
71668;DHT22;59504;54.806;9.640;2023-06-22T01:08:31;14.90;60.80
71668;DHT22;59504;54.806;9.640;2023-06-22T01:10:55;14.90;60.90
71668;DHT22;59504;54.806;9.640;2023-06-22T01:13:32;14.90;60.40
71668;DHT22;59504;54.806;9.640;2023-06-22T01:18:25;14.80;60.60
71668;DHT22;59504;54.806;9.640;2023-06-22T01:20:49;14.80;60.40
71668;DHT22;59504;54.806;9.640;2023-06-22T01:23:17;14.80;60.80
71668;DHT22;59504;54.806;9.640;2023-06-22T01:25:48;14.70;60.50
71668;DHT22;59504;54.806;9.640;2023-06-22T01:30:35;14.60;60.40
71668;DHT22;59504;54.806;9.640;2023-06-22T01:32:59;14.70;60.60
71668;DHT22;59504;54.806;9.640;2023-06-22T01:35:22;14.60;60.90
71668;DHT22;59504;54.806;9.640;2023-06-22T01:37:43;14.50;60.70
71668;DHT22;59504;54.806;9.640;2023-06-22T01:40:05;14.60;61.80
71668;DHT22;59504;54.806;9.640;2023-06-22T01:42:26;14.50;61.30
71668;DHT22;59504;54.806;9.640;2023-06-22T01:44:47;14.50;61.90
71668;DHT22;59504;54.806;9.640;2023-06-22T01:47:08;14.40;61.00
71668;DHT22;59504;54.806;9.640;2023-06-22T01:49:29;14.40;60.70
71668;DHT22;59504;54.806;9.640;2023-06-22T01:51:50;14.40;60.70
71668;DHT22;59504;54.806;9.640;2023-06-22T01:54:17;14.30;60.90
71668;DHT22;59504;54.806;9.640;2023-06-22T01:56:45;14.30;61.00
71668;DHT22;59504;54.806;9.640;2023-06-22T01:59:17;14.30;61.30
71668;DHT22;59504;54.806;9.640;2023-06-22T02:01:50;14.30;61.40
71668;DHT22;59504;54.806;9.640;2023-06-22T02:04:13;14.30;61.50
71668;DHT22;59504;54.806;9.640;2023-06-22T02:06:36;14.20;61.50
71668;DHT22;59504;54.806;9.640;2023-06-22T02:09:01;14.20;61.50
71668;DHT22;59504;54.806;9.640;2023-06-22T02:11:23;14.20;61.60
71668;DHT22;59504;54.806;9.640;2023-06-22T02:13:48;14.20;62.10
71668;DHT22;59504;54.806;9.640;2023-06-22T02:16:12;14.20;62.00
71668;DHT22;59504;54.806;9.640;2023-06-22T02:18:33;14.20;62.10
71668;DHT22;59504;54.806;9.640;2023-06-22T02:20:56;14.10;61.60
71668;DHT22;59504;54.806;9.640;2023-06-22T02:23:17;14.10;61.30
71668;DHT22;59504;54.806;9.640;2023-06-22T02:25:37;14.10;61.00
71668;DHT22;59504;54.806;9.640;2023-06-22T02:27:58;14.00;62.00
71668;DHT22;59504;54.806;9.640;2023-06-22T02:30:19;14.00;61.90
71668;DHT22;59504;54.806;9.640;2023-06-22T02:32:40;14.00;61.80
71668;DHT22;59504;54.806;9.640;2023-06-22T02:35:02;13.90;61.90
71668;DHT22;59504;54.806;9.640;2023-06-22T02:37:26;13.90;61.90
71668;DHT22;59504;54.806;9.640;2023-06-22T02:39:50;13.90;62.10
71668;DHT22;59504;54.806;9.640;2023-06-22T02:42:11;13.90;62.00
71668;DHT22;59504;54.806;9.640;2023-06-22T02:44:31;13.90;62.30
71668;DHT22;59504;54.806;9.640;2023-06-22T02:46:52;13.90;62.20
71668;DHT22;59504;54.806;9.640;2023-06-22T02:49:14;13.80;62.30
71668;DHT22;59504;54.806;9.640;2023-06-22T02:51:35;13.80;62.40
71668;DHT22;59504;54.806;9.640;2023-06-22T02:53:56;13.80;62.50
71668;DHT22;59504;54.806;9.640;2023-06-22T02:56:18;13.80;62.60
71668;DHT22;59504;54.806;9.640;2023-06-22T02:58:45;13.80;62.60
71668;DHT22;59504;54.806;9.640;2023-06-22T03:01:06;13.70;62.60
71668;DHT22;59504;54.806;9.640;2023-06-22T03:03:27;13.70;62.60
71668;DHT22;59504;54.806;9.640;2023-06-22T03:05:47;13.70;62.80
71668;DHT22;59504;54.806;9.640;2023-06-22T03:08:08;13.70;62.90
71668;DHT22;59504;54.806;9.640;2023-06-22T03:10:29;13.70;62.80
71668;DHT22;59504;54.806;9.640;2023-06-22T03:12:50;13.60;62.80
71668;DHT22;59504;54.806;9.640;2023-06-22T03:15:11;13.60;62.60
71668;DHT22;59504;54.806;9.640;2023-06-22T03:17:33;13.70;63.00
71668;DHT22;59504;54.806;9.640;2023-06-22T03:19:54;13.50;63.20
71668;DHT22;59504;54.806;9.640;2023-06-22T03:22:17;13.60;63.20
71668;DHT22;59504;54.806;9.640;2023-06-22T03:24:38;13.60;63.80
71668;DHT22;59504;54.806;9.640;2023-06-22T03:26:59;13.60;63.70
71668;DHT22;59504;54.806;9.640;2023-06-22T03:29:20;13.60;63.80
71668;DHT22;59504;54.806;9.640;2023-06-22T03:31:41;13.60;64.20
71668;DHT22;59504;54.806;9.640;2023-06-22T03:34:02;13.60;64.00
71668;DHT22;59504;54.806;9.640;2023-06-22T03:36:23;13.70;64.10
71668;DHT22;59504;54.806;9.640;2023-06-22T03:38:47;13.70;64.30
71668;DHT22;59504;54.806;9.640;2023-06-22T03:41:08;13.70;64.60
71668;DHT22;59504;54.806;9.640;2023-06-22T03:43:29;13.70;65.70
71668;DHT22;59504;54.806;9.640;2023-06-22T03:45:50;13.80;65.10
71668;DHT22;59504;54.806;9.640;2023-06-22T03:48:11;13.90;65.60
71668;DHT22;59504;54.806;9.640;2023-06-22T03:50:32;13.80;66.30
71668;DHT22;59504;54.806;9.640;2023-06-22T03:52:53;13.90;66.60
71668;DHT22;59504;54.806;9.640;2023-06-22T03:55:14;13.90;67.10
71668;DHT22;59504;54.806;9.640;2023-06-22T03:57:35;14.10;68.10
71668;DHT22;59504;54.806;9.640;2023-06-22T03:59:56;14.10;68.40
71668;DHT22;59504;54.806;9.640;2023-06-22T04:02:17;14.20;68.50
71668;DHT22;59504;54.806;9.640;2023-06-22T04:04:38;14.30;69.10
71668;DHT22;59504;54.806;9.640;2023-06-22T04:06:59;14.40;69.60
71668;DHT22;59504;54.806;9.640;2023-06-22T04:09:20;14.50;68.80
71668;DHT22;59504;54.806;9.640;2023-06-22T04:11:42;14.60;69.20
71668;DHT22;59504;54.806;9.640;2023-06-22T04:14:03;14.70;70.00
71668;DHT22;59504;54.806;9.640;2023-06-22T04:16:23;14.80;71.00
71668;DHT22;59504;54.806;9.640;2023-06-22T04:18:44;14.90;71.90
71668;DHT22;59504;54.806;9.640;2023-06-22T04:21:05;15.10;72.10
71668;DHT22;59504;54.806;9.640;2023-06-22T04:23:26;15.10;73.20
71668;DHT22;59504;54.806;9.640;2023-06-22T04:25:47;15.30;74.00
71668;DHT22;59504;54.806;9.640;2023-06-22T04:28:07;15.40;74.20
71668;DHT22;59504;54.806;9.640;2023-06-22T04:30:33;15.50;74.20
71668;DHT22;59504;54.806;9.640;2023-06-22T04:32:53;15.60;74.10
71668;DHT22;59504;54.806;9.640;2023-06-22T04:35:18;15.70;74.40
71668;DHT22;59504;54.806;9.640;2023-06-22T04:37:39;15.90;75.50
71668;DHT22;59504;54.806;9.640;2023-06-22T04:39:59;16.00;75.30
71668;DHT22;59504;54.806;9.640;2023-06-22T04:42:20;16.10;75.30
71668;DHT22;59504;54.806;9.640;2023-06-22T04:44:41;16.20;75.00
71668;DHT22;59504;54.806;9.640;2023-06-22T04:47:03;16.30;75.20
71668;DHT22;59504;54.806;9.640;2023-06-22T04:49:24;16.40;75.50
71668;DHT22;59504;54.806;9.640;2023-06-22T04:51:53;16.60;75.30
71668;DHT22;59504;54.806;9.640;2023-06-22T04:54:15;16.70;75.10
71668;DHT22;59504;54.806;9.640;2023-06-22T04:56:36;16.80;74.60
71668;DHT22;59504;54.806;9.640;2023-06-22T04:58:57;16.90;74.60
71668;DHT22;59504;54.806;9.640;2023-06-22T05:01:18;17.00;75.10
71668;DHT22;59504;54.806;9.640;2023-06-22T05:03:40;17.10;75.30
71668;DHT22;59504;54.806;9.640;2023-06-22T05:06:02;17.30;74.70
71668;DHT22;59504;54.806;9.640;2023-06-22T05:08:23;17.40;74.40
71668;DHT22;59504;54.806;9.640;2023-06-22T05:10:47;17.50;74.50
71668;DHT22;59504;54.806;9.640;2023-06-22T05:13:11;17.60;74.20
71668;DHT22;59504;54.806;9.640;2023-06-22T05:15:31;17.70;74.20
71668;DHT22;59504;54.806;9.640;2023-06-22T05:17:57;17.80;73.10
71668;DHT22;59504;54.806;9.640;2023-06-22T05:20:19;17.90;72.50
71668;DHT22;59504;54.806;9.640;2023-06-22T05:22:39;18.00;72.00
71668;DHT22;59504;54.806;9.640;2023-06-22T05:25:00;18.10;71.60
71668;DHT22;59504;54.806;9.640;2023-06-22T05:27:21;18.20;71.20
71668;DHT22;59504;54.806;9.640;2023-06-22T05:29:42;18.30;70.40
71668;DHT22;59504;54.806;9.640;2023-06-22T05:32:03;18.30;70.40
71668;DHT22;59504;54.806;9.640;2023-06-22T05:34:24;18.40;70.00
71668;DHT22;59504;54.806;9.640;2023-06-22T05:36:45;18.60;69.50
71668;DHT22;59504;54.806;9.640;2023-06-22T05:39:12;18.60;69.00
71668;DHT22;59504;54.806;9.640;2023-06-22T05:41:36;18.70;68.90
71668;DHT22;59504;54.806;9.640;2023-06-22T05:43:57;18.80;69.10
71668;DHT22;59504;54.806;9.640;2023-06-22T05:46:18;18.90;69.20
71668;DHT22;59504;54.806;9.640;2023-06-22T05:48:39;19.00;69.10
71668;DHT22;59504;54.806;9.640;2023-06-22T05:51:00;19.10;69.00
71668;DHT22;59504;54.806;9.640;2023-06-22T05:53:21;19.20;68.50
71668;DHT22;59504;54.806;9.640;2023-06-22T05:55:52;19.30;67.70
71668;DHT22;59504;54.806;9.640;2023-06-22T05:58:13;19.40;68.10
71668;DHT22;59504;54.806;9.640;2023-06-22T06:00:34;19.40;66.80
71668;DHT22;59504;54.806;9.640;2023-06-22T06:02:55;19.50;66.70
71668;DHT22;59504;54.806;9.640;2023-06-22T06:05:17;19.60;66.70
71668;DHT22;59504;54.806;9.640;2023-06-22T06:07:39;19.70;65.90
71668;DHT22;59504;54.806;9.640;2023-06-22T06:10:00;19.70;66.10
71668;DHT22;59504;54.806;9.640;2023-06-22T06:12:20;19.70;65.20
71668;DHT22;59504;54.806;9.640;2023-06-22T06:14:41;19.80;64.70
71668;DHT22;59504;54.806;9.640;2023-06-22T06:17:02;19.80;64.70
71668;DHT22;59504;54.806;9.640;2023-06-22T06:19:23;19.90;64.50
71668;DHT22;59504;54.806;9.640;2023-06-22T06:21:44;20.00;64.80
71668;DHT22;59504;54.806;9.640;2023-06-22T06:24:05;20.00;64.50
71668;DHT22;59504;54.806;9.640;2023-06-22T06:26:26;20.10;64.60
71668;DHT22;59504;54.806;9.640;2023-06-22T06:28:50;20.20;64.60
71668;DHT22;59504;54.806;9.640;2023-06-22T06:31:10;20.30;64.20
71668;DHT22;59504;54.806;9.640;2023-06-22T06:33:32;20.30;63.60
71668;DHT22;59504;54.806;9.640;2023-06-22T06:35:53;20.50;63.50
71668;DHT22;59504;54.806;9.640;2023-06-22T06:38:16;20.50;62.80
71668;DHT22;59504;54.806;9.640;2023-06-22T06:40:37;20.60;62.30
71668;DHT22;59504;54.806;9.640;2023-06-22T06:42:58;20.70;62.00
71668;DHT22;59504;54.806;9.640;2023-06-22T06:45:19;20.70;61.40
71668;DHT22;59504;54.806;9.640;2023-06-22T06:47:42;20.70;61.00
71668;DHT22;59504;54.806;9.640;2023-06-22T06:50:04;20.80;60.80
71668;DHT22;59504;54.806;9.640;2023-06-22T06:52:44;20.80;60.70
71668;DHT22;59504;54.806;9.640;2023-06-22T06:55:05;20.90;60.30
71668;DHT22;59504;54.806;9.640;2023-06-22T06:57:29;20.90;60.10
71668;DHT22;59504;54.806;9.640;2023-06-22T06:59:50;21.00;60.00
71668;DHT22;59504;54.806;9.640;2023-06-22T07:02:11;21.00;59.90
71668;DHT22;59504;54.806;9.640;2023-06-22T07:04:32;21.10;59.90
71668;DHT22;59504;54.806;9.640;2023-06-22T07:06:53;21.10;59.70
71668;DHT22;59504;54.806;9.640;2023-06-22T07:09:14;21.20;59.40
71668;DHT22;59504;54.806;9.640;2023-06-22T07:11:34;21.20;59.30
71668;DHT22;59504;54.806;9.640;2023-06-22T07:13:57;21.30;59.30
71668;DHT22;59504;54.806;9.640;2023-06-22T07:16:17;21.30;59.10
71668;DHT22;59504;54.806;9.640;2023-06-22T07:18:39;21.40;58.40
71668;DHT22;59504;54.806;9.640;2023-06-22T07:21:00;21.50;58.60
71668;DHT22;59504;54.806;9.640;2023-06-22T07:23:21;21.50;57.60
71668;DHT22;59504;54.806;9.640;2023-06-22T07:25:43;21.60;57.90
71668;DHT22;59504;54.806;9.640;2023-06-22T07:28:05;21.70;58.50
71668;DHT22;59504;54.806;9.640;2023-06-22T07:30:25;21.70;57.90
71668;DHT22;59504;54.806;9.640;2023-06-22T07:32:47;21.80;57.90
71668;DHT22;59504;54.806;9.640;2023-06-22T07:35:08;21.90;57.50
71668;DHT22;59504;54.806;9.640;2023-06-22T07:37:29;21.90;57.50
71668;DHT22;59504;54.806;9.640;2023-06-22T07:39:50;22.00;57.50
71668;DHT22;59504;54.806;9.640;2023-06-22T07:42:14;22.10;56.90
71668;DHT22;59504;54.806;9.640;2023-06-22T07:44:39;22.10;56.70
71668;DHT22;59504;54.806;9.640;2023-06-22T07:47:00;22.20;56.80
71668;DHT22;59504;54.806;9.640;2023-06-22T07:49:20;22.20;56.60
71668;DHT22;59504;54.806;9.640;2023-06-22T07:51:41;22.30;56.20
71668;DHT22;59504;54.806;9.640;2023-06-22T07:54:02;22.40;56.00
71668;DHT22;59504;54.806;9.640;2023-06-22T07:56:23;22.50;55.20
71668;DHT22;59504;54.806;9.640;2023-06-22T07:58:44;22.50;55.70
71668;DHT22;59504;54.806;9.640;2023-06-22T08:01:05;22.50;54.30
71668;DHT22;59504;54.806;9.640;2023-06-22T08:03:26;22.60;54.00
71668;DHT22;59504;54.806;9.640;2023-06-22T08:05:47;22.70;54.30
71668;DHT22;59504;54.806;9.640;2023-06-22T08:08:08;22.70;53.00
71668;DHT22;59504;54.806;9.640;2023-06-22T08:10:32;22.70;53.20
71668;DHT22;59504;54.806;9.640;2023-06-22T08:12:52;22.80;53.60
71668;DHT22;59504;54.806;9.640;2023-06-22T08:15:13;22.90;53.70
71668;DHT22;59504;54.806;9.640;2023-06-22T08:17:37;23.00;54.10
71668;DHT22;59504;54.806;9.640;2023-06-22T08:19:58;23.00;53.90
71668;DHT22;59504;54.806;9.640;2023-06-22T08:22:19;23.10;52.20
71668;DHT22;59504;54.806;9.640;2023-06-22T08:24:40;23.10;53.00
71668;DHT22;59504;54.806;9.640;2023-06-22T08:27:01;23.10;51.40
71668;DHT22;59504;54.806;9.640;2023-06-22T08:29:22;23.20;52.30
71668;DHT22;59504;54.806;9.640;2023-06-22T08:31:42;23.20;50.30
71668;DHT22;59504;54.806;9.640;2023-06-22T08:34:03;23.20;49.80
71668;DHT22;59504;54.806;9.640;2023-06-22T08:36:24;23.20;49.70
71668;DHT22;59504;54.806;9.640;2023-06-22T08:38:45;23.20;50.90
71668;DHT22;59504;54.806;9.640;2023-06-22T08:41:10;23.10;50.00
71668;DHT22;59504;54.806;9.640;2023-06-22T08:43:31;23.10;50.00
71668;DHT22;59504;54.806;9.640;2023-06-22T08:45:52;23.10;50.00
71668;DHT22;59504;54.806;9.640;2023-06-22T08:48:13;23.10;50.30
71668;DHT22;59504;54.806;9.640;2023-06-22T08:50:36;23.20;50.50
71668;DHT22;59504;54.806;9.640;2023-06-22T08:52:57;23.20;50.70
71668;DHT22;59504;54.806;9.640;2023-06-22T08:55:21;23.20;50.90
71668;DHT22;59504;54.806;9.640;2023-06-22T08:57:47;23.20;50.40
71668;DHT22;59504;54.806;9.640;2023-06-22T09:00:08;23.30;48.40
71668;DHT22;59504;54.806;9.640;2023-06-22T09:02:37;23.30;49.40
71668;DHT22;59504;54.806;9.640;2023-06-22T09:04:59;23.30;48.80
71668;DHT22;59504;54.806;9.640;2023-06-22T09:07:20;23.30;49.10
71668;DHT22;59504;54.806;9.640;2023-06-22T09:09:42;23.40;49.40
71668;DHT22;59504;54.806;9.640;2023-06-22T09:12:03;23.40;50.00
71668;DHT22;59504;54.806;9.640;2023-06-22T09:14:24;23.50;50.40
71668;DHT22;59504;54.806;9.640;2023-06-22T09:16:45;23.60;49.60
71668;DHT22;59504;54.806;9.640;2023-06-22T09:19:06;23.60;50.10
71668;DHT22;59504;54.806;9.640;2023-06-22T09:21:27;23.70;50.30
71668;DHT22;59504;54.806;9.640;2023-06-22T09:23:48;23.80;49.80
71668;DHT22;59504;54.806;9.640;2023-06-22T09:26:12;23.90;49.10
71668;DHT22;59504;54.806;9.640;2023-06-22T09:28:33;23.90;48.10
71668;DHT22;59504;54.806;9.640;2023-06-22T09:30:54;24.00;47.90
71668;DHT22;59504;54.806;9.640;2023-06-22T09:33:19;24.10;48.70
71668;DHT22;59504;54.806;9.640;2023-06-22T09:35:40;24.20;45.70
71668;DHT22;59504;54.806;9.640;2023-06-22T09:38:01;24.20;46.10
71668;DHT22;59504;54.806;9.640;2023-06-22T09:40:22;24.20;47.00
71668;DHT22;59504;54.806;9.640;2023-06-22T09:42:42;24.20;46.70
71668;DHT22;59504;54.806;9.640;2023-06-22T09:45:04;24.30;45.30
71668;DHT22;59504;54.806;9.640;2023-06-22T09:47:25;24.30;45.20
71668;DHT22;59504;54.806;9.640;2023-06-22T09:49:45;24.30;46.20
71668;DHT22;59504;54.806;9.640;2023-06-22T09:52:06;24.30;45.60
71668;DHT22;59504;54.806;9.640;2023-06-22T09:54:27;24.30;44.40
71668;DHT22;59504;54.806;9.640;2023-06-22T09:56:48;24.30;46.00
71668;DHT22;59504;54.806;9.640;2023-06-22T09:59:09;24.30;45.10
71668;DHT22;59504;54.806;9.640;2023-06-22T10:01:30;24.30;45.20
71668;DHT22;59504;54.806;9.640;2023-06-22T10:03:52;24.30;44.70
71668;DHT22;59504;54.806;9.640;2023-06-22T10:06:17;24.30;45.20
71668;DHT22;59504;54.806;9.640;2023-06-22T10:08:37;24.40;45.60
71668;DHT22;59504;54.806;9.640;2023-06-22T10:10:59;24.40;46.00
71668;DHT22;59504;54.806;9.640;2023-06-22T10:13:20;24.40;45.50
71668;DHT22;59504;54.806;9.640;2023-06-22T10:15:41;24.50;46.00
71668;DHT22;59504;54.806;9.640;2023-06-22T10:18:02;24.60;45.50
71668;DHT22;59504;54.806;9.640;2023-06-22T10:20:23;24.60;44.90
71668;DHT22;59504;54.806;9.640;2023-06-22T10:22:44;24.70;45.00
71668;DHT22;59504;54.806;9.640;2023-06-22T10:25:31;24.70;45.50
71668;DHT22;59504;54.806;9.640;2023-06-22T10:27:52;24.80;44.10
71668;DHT22;59504;54.806;9.640;2023-06-22T10:30:13;24.80;44.80
71668;DHT22;59504;54.806;9.640;2023-06-22T10:32:37;24.90;45.00
71668;DHT22;59504;54.806;9.640;2023-06-22T10:34:58;25.00;45.20
71668;DHT22;59504;54.806;9.640;2023-06-22T10:37:19;25.00;43.80
71668;DHT22;59504;54.806;9.640;2023-06-22T10:39:40;25.00;44.30
71668;DHT22;59504;54.806;9.640;2023-06-22T10:42:01;25.10;44.00
71668;DHT22;59504;54.806;9.640;2023-06-22T10:44:22;25.10;45.10
71668;DHT22;59504;54.806;9.640;2023-06-22T10:46:43;25.10;44.00
71668;DHT22;59504;54.806;9.640;2023-06-22T10:49:04;25.10;43.80
71668;DHT22;59504;54.806;9.640;2023-06-22T10:51:25;25.10;44.20
71668;DHT22;59504;54.806;9.640;2023-06-22T10:53:46;25.10;44.70
71668;DHT22;59504;54.806;9.640;2023-06-22T10:56:07;25.10;44.60
71668;DHT22;59504;54.806;9.640;2023-06-22T10:58:27;25.00;45.10
71668;DHT22;59504;54.806;9.640;2023-06-22T11:00:48;25.10;45.10
71668;DHT22;59504;54.806;9.640;2023-06-22T11:03:27;25.10;45.00
71668;DHT22;59504;54.806;9.640;2023-06-22T11:08:22;25.10;42.80
71668;DHT22;59504;54.806;9.640;2023-06-22T11:10:43;25.00;42.50
71668;DHT22;59504;54.806;9.640;2023-06-22T11:13:04;24.90;41.90
71668;DHT22;59504;54.806;9.640;2023-06-22T11:15:26;25.00;42.00
71668;DHT22;59504;54.806;9.640;2023-06-22T11:17:47;24.90;43.10
71668;DHT22;59504;54.806;9.640;2023-06-22T11:20:07;24.90;43.30
71668;DHT22;59504;54.806;9.640;2023-06-22T11:22:31;24.90;42.00
71668;DHT22;59504;54.806;9.640;2023-06-22T11:24:54;24.90;43.10
71668;DHT22;59504;54.806;9.640;2023-06-22T11:27:15;24.80;43.20
71668;DHT22;59504;54.806;9.640;2023-06-22T11:29:36;24.80;42.80
71668;DHT22;59504;54.806;9.640;2023-06-22T11:31:56;24.90;43.20
71668;DHT22;59504;54.806;9.640;2023-06-22T11:34:17;24.80;42.20
71668;DHT22;59504;54.806;9.640;2023-06-22T11:36:39;24.90;43.10
71668;DHT22;59504;54.806;9.640;2023-06-22T11:39:00;24.90;42.70
71668;DHT22;59504;54.806;9.640;2023-06-22T11:41:21;24.90;42.50
71668;DHT22;59504;54.806;9.640;2023-06-22T11:43:43;24.90;43.20
71668;DHT22;59504;54.806;9.640;2023-06-22T11:46:04;24.90;43.20
71668;DHT22;59504;54.806;9.640;2023-06-22T11:48:25;25.00;43.00
71668;DHT22;59504;54.806;9.640;2023-06-22T11:50:46;25.00;42.80
71668;DHT22;59504;54.806;9.640;2023-06-22T11:53:07;25.10;43.20
71668;DHT22;59504;54.806;9.640;2023-06-22T11:55:27;25.10;42.20
71668;DHT22;59504;54.806;9.640;2023-06-22T11:57:55;25.20;42.50
71668;DHT22;59504;54.806;9.640;2023-06-22T12:00:17;25.20;42.60
71668;DHT22;59504;54.806;9.640;2023-06-22T12:02:38;25.20;40.90
71668;DHT22;59504;54.806;9.640;2023-06-22T12:05:01;25.30;42.30
71668;DHT22;59504;54.806;9.640;2023-06-22T12:07:25;25.40;42.60
71668;DHT22;59504;54.806;9.640;2023-06-22T12:09:46;25.40;41.90
71668;DHT22;59504;54.806;9.640;2023-06-22T12:12:07;25.40;42.40
71668;DHT22;59504;54.806;9.640;2023-06-22T12:14:28;25.50;43.50
71668;DHT22;59504;54.806;9.640;2023-06-22T12:16:49;25.50;43.40
71668;DHT22;59504;54.806;9.640;2023-06-22T12:19:10;25.50;42.90
71668;DHT22;59504;54.806;9.640;2023-06-22T12:21:31;25.50;42.00
71668;DHT22;59504;54.806;9.640;2023-06-22T12:23:52;25.50;42.10
71668;DHT22;59504;54.806;9.640;2023-06-22T12:26:15;25.60;42.00
71668;DHT22;59504;54.806;9.640;2023-06-22T12:28:36;25.50;41.90
71668;DHT22;59504;54.806;9.640;2023-06-22T12:30:57;25.50;41.10
71668;DHT22;59504;54.806;9.640;2023-06-22T12:33:21;25.40;41.00
71668;DHT22;59504;54.806;9.640;2023-06-22T12:35:43;25.50;42.60
71668;DHT22;59504;54.806;9.640;2023-06-22T12:38:04;25.60;42.90
71668;DHT22;59504;54.806;9.640;2023-06-22T12:40:27;25.60;42.50
71668;DHT22;59504;54.806;9.640;2023-06-22T12:42:47;25.60;40.80
71668;DHT22;59504;54.806;9.640;2023-06-22T12:45:17;25.60;41.30
71668;DHT22;59504;54.806;9.640;2023-06-22T12:47:39;25.60;41.20
71668;DHT22;59504;54.806;9.640;2023-06-22T12:50:00;25.70;40.90
71668;DHT22;59504;54.806;9.640;2023-06-22T12:52:21;25.70;40.80
71668;DHT22;59504;54.806;9.640;2023-06-22T12:54:41;25.70;41.10
71668;DHT22;59504;54.806;9.640;2023-06-22T12:57:02;25.70;39.90
71668;DHT22;59504;54.806;9.640;2023-06-22T12:59:29;25.70;40.00
71668;DHT22;59504;54.806;9.640;2023-06-22T13:01:50;25.80;40.20
71668;DHT22;59504;54.806;9.640;2023-06-22T13:04:13;25.80;40.90
71668;DHT22;59504;54.806;9.640;2023-06-22T13:06:35;25.80;40.70
71668;DHT22;59504;54.806;9.640;2023-06-22T13:08:56;25.80;41.10
71668;DHT22;59504;54.806;9.640;2023-06-22T13:11:17;25.80;40.80
71668;DHT22;59504;54.806;9.640;2023-06-22T13:13:38;25.80;39.60
71668;DHT22;59504;54.806;9.640;2023-06-22T13:15:59;25.70;40.20
71668;DHT22;59504;54.806;9.640;2023-06-22T13:18:23;25.80;40.50
71668;DHT22;59504;54.806;9.640;2023-06-22T13:20:44;25.80;40.20
71668;DHT22;59504;54.806;9.640;2023-06-22T13:23:06;25.70;39.60
71668;DHT22;59504;54.806;9.640;2023-06-22T13:25:27;25.60;39.50
71668;DHT22;59504;54.806;9.640;2023-06-22T13:27:55;25.50;39.90
71668;DHT22;59504;54.806;9.640;2023-06-22T13:30:16;25.50;40.80
71668;DHT22;59504;54.806;9.640;2023-06-22T13:32:37;25.40;40.80
71668;DHT22;59504;54.806;9.640;2023-06-22T13:34:57;25.30;41.60
71668;DHT22;59504;54.806;9.640;2023-06-22T13:37:18;25.30;41.90
71668;DHT22;59504;54.806;9.640;2023-06-22T13:39:39;25.30;42.50
71668;DHT22;59504;54.806;9.640;2023-06-22T13:42:00;25.20;41.50
71668;DHT22;59504;54.806;9.640;2023-06-22T13:44:21;25.20;41.70
71668;DHT22;59504;54.806;9.640;2023-06-22T13:46:42;25.30;42.20
71668;DHT22;59504;54.806;9.640;2023-06-22T13:49:03;25.30;40.90
71668;DHT22;59504;54.806;9.640;2023-06-22T13:51:24;25.30;42.10
71668;DHT22;59504;54.806;9.640;2023-06-22T13:53:45;25.30;42.20
71668;DHT22;59504;54.806;9.640;2023-06-22T13:56:12;25.30;41.80
71668;DHT22;59504;54.806;9.640;2023-06-22T13:58:32;25.30;40.60
71668;DHT22;59504;54.806;9.640;2023-06-22T14:00:53;25.30;41.40
71668;DHT22;59504;54.806;9.640;2023-06-22T14:03:19;25.40;43.30
71668;DHT22;59504;54.806;9.640;2023-06-22T14:05:40;25.30;42.90
71668;DHT22;59504;54.806;9.640;2023-06-22T14:08:01;25.40;43.40
71668;DHT22;59504;54.806;9.640;2023-06-22T14:10:25;25.40;44.50
71668;DHT22;59504;54.806;9.640;2023-06-22T14:12:46;25.40;44.50
71668;DHT22;59504;54.806;9.640;2023-06-22T14:15:07;25.40;44.70
71668;DHT22;59504;54.806;9.640;2023-06-22T14:17:30;25.30;43.40
71668;DHT22;59504;54.806;9.640;2023-06-22T14:19:52;25.30;43.90
71668;DHT22;59504;54.806;9.640;2023-06-22T14:22:13;25.30;43.50
71668;DHT22;59504;54.806;9.640;2023-06-22T14:24:34;25.20;43.10
71668;DHT22;59504;54.806;9.640;2023-06-22T14:26:55;25.10;43.00
71668;DHT22;59504;54.806;9.640;2023-06-22T14:29:19;25.10;43.60
71668;DHT22;59504;54.806;9.640;2023-06-22T14:31:40;25.10;43.40
71668;DHT22;59504;54.806;9.640;2023-06-22T14:34:01;25.10;44.10
71668;DHT22;59504;54.806;9.640;2023-06-22T14:36:24;25.00;43.80
71668;DHT22;59504;54.806;9.640;2023-06-22T14:38:44;25.00;43.70
71668;DHT22;59504;54.806;9.640;2023-06-22T14:41:06;25.00;43.90
71668;DHT22;59504;54.806;9.640;2023-06-22T14:43:29;25.00;44.00
71668;DHT22;59504;54.806;9.640;2023-06-22T14:45:50;24.90;44.20
71668;DHT22;59504;54.806;9.640;2023-06-22T14:48:11;24.90;44.20
71668;DHT22;59504;54.806;9.640;2023-06-22T14:50:32;24.90;44.20
71668;DHT22;59504;54.806;9.640;2023-06-22T14:52:53;24.90;44.00
71668;DHT22;59504;54.806;9.640;2023-06-22T14:55:15;24.80;42.80
71668;DHT22;59504;54.806;9.640;2023-06-22T14:57:36;24.80;42.40
71668;DHT22;59504;54.806;9.640;2023-06-22T14:59:57;24.80;42.80
71668;DHT22;59504;54.806;9.640;2023-06-22T15:02:18;24.70;42.00